Weather observations for the past three days for
Corinth
Imperial (Metric)
Date Time (cdt) Wind (mph) Vis. (mi.) Weather Sky Cond. Temperature (ºF) Relative Humidity Wind Chill (°F) Heat Index (°F) Pressure Precipitation (in)
Air Dwpt 6 hour altimeter (in) sea level (mb) 1 hr 3 hr 6 hr
Max. Min.
03 20:15 Calm 10.00 Fair CLR 59 46.4 63% 30.02 0.0
03 19:55 SW 5 10.00 Fair CLR 64.4 42.8 46% 30.01 0.0
03 19:35 SW 5 10.00 Fair CLR 66.2 42.8 43% 30.01 0.0
03 19:15 SW 5 10.00 Fair CLR 68 42.8 40% 30.01 0.0
03 18:55 SW 5 10.00 Fair CLR 69.8 41 35% 30.01 0.0
03 18:35 SW 6 10.00 Fair CLR 69.8 39.2 33% 30.02 0.0
03 18:15 Vrbl 6 10.00 Fair CLR 71.6 41 33% 30.02 0.0
03 17:55 W 7 G 13 10.00 Fair CLR 71.6 41 33% 30.03 0.0
03 17:35 SW 9 10.00 Fair CLR 71.6 42.8 36% 30.03 0.0
03 17:10 W 9 10.00 Fair CLR 73.4 42.8 33% 30.04 0.0
03 16:55 SW 5 G 13 10.00 Fair CLR 73.4 42.8 33% 30.04 0.0
03 16:35 W 7 G 13 10.00 Fair CLR 71.6 41 33% 30.05 0.0
03 16:15 Vrbl 6 G 13 10.00 Fair CLR 73.4 41 31% 30.06 0.0
03 15:55 Calm 10.00 Fair CLR 71.6 39.2 31% 30.06 0.0
03 15:35 Vrbl 6 G 12 10.00 Fair CLR 71.6 39.2 31% 30.07 0.0
03 15:15 Vrbl 6 G 15 10.00 Fair CLR 71.6 42.8 36% 30.08 0.0
03 14:55 Vrbl 6 G 13 10.00 Fair CLR 71.6 41 33% 30.1 0.0
03 14:35 SW 8 G 14 10.00 Fair CLR 69.8 41 35% 30.11 0.0
03 14:15 Calm 10.00 Fair CLR 69.8 41 35% 30.12 0.0
03 13:55 Vrbl 6 10.00 Fair CLR 69.8 41 35% 30.12 0.0
03 13:30 SW 5 G 14 10.00 Fair CLR 68 41 38% 30.14 0.0
03 13:15 Vrbl 7 G 15 10.00 Fair CLR 68 39.2 35% 30.15 0.0
03 12:55 Calm 10.00 Fair CLR 66.2 39.2 37% 30.16 0.0
03 12:35 Vrbl 5 G 14 10.00 Fair CLR 66.2 37.4 35% 30.17 0.0
03 12:15 Vrbl 7 10.00 Fair CLR 66.2 39.2 37% 30.17 0.0
03 11:55 Calm 10.00 Fair CLR 64.4 37.4 37% 30.18 0.0
03 11:35 S 6 10.00 Fair CLR 64.4 37.4 37% 30.19 0.0
03 11:15 SW 6 G 14 10.00 Fair CLR 62.6 39.2 42% 30.19 0.0
03 10:55 Vrbl 3 10.00 Fair CLR 62.6 37.4 39% 30.2 0.0
03 10:35 SE 6 10.00 Fair CLR 60.8 37.4 42% 30.2 0.0
03 10:15 Vrbl 3 10.00 Fair CLR 60.8 39.2 45% 30.21 0.0
03 09:50 Vrbl 5 10.00 Fair CLR 59 41 51% 30.21 0.0
03 09:35 Vrbl 5 10.00 Fair CLR 57.2 44.6 63% 30.21 0.0
03 09:15 SE 8 10.00 Fair CLR 57.2 44.6 63% 30.21 0.0
03 08:55 SE 7 10.00 Fair CLR 53.6 46.4 77% 30.2 0.0
03 08:35 SE 8 10.00 Fair CLR 51.8 48.2 88% 30.21 0.0
03 08:15 SE 6 6.00 Fog/Mist CLR 48.2 48.2 100% 46 30.21 0.0
03 07:55 Calm 10.00 Fair CLR 46.4 46.4 100% 30.21 0.0
03 07:35 Calm 1.50 Fog/Mist BKN002 44.6 44.6 100% 30.2 0.0
03 07:15 Calm 0.15 Fog OVC002 42.8 42.8 100% 30.19 0.0
03 06:55 Calm 0.15 Light Unknown Precip OVC002 41 41 100% 30.19 0.0
03 06:35 Calm 0.25 Fog OVC002 39.2 39.2 100% 30.18 0.0
03 06:10 Calm 1.00 Fog/Mist CLR 41 41 100% 30.16 0.0
03 05:55 Calm 0.25 Fog VV002 41 41 100% 30.16 0.0
03 05:35 Calm 1.00 Fog/Mist CLR 41 41 100% 30.16 0.0
03 05:15 Calm 1.00 Fog/Mist CLR 41 41 100% 30.16 0.0
03 04:55 Calm 2.00 Fog/Mist CLR 41 41 100% 30.16 0.0
03 04:35 Calm 2.00 Fog/Mist CLR 42.8 42.8 100% 30.15 0.0
03 04:15 Calm 6.00 Fog/Mist FEW002 42.8 42.8 100% 30.15 0.0
03 03:55 Calm 7.00 Partly Cloudy SCT002 42.8 42.8 100% 30.15 0.0
03 03:35 Calm 2.00 Fog/Mist CLR 42.8 42.8 100% 30.15 0.0
03 03:15 Calm 10.00 Fair CLR 44.6 44.6 100% 30.15 0.0
03 02:55 Calm 10.00 Fair CLR 44.6 44.6 100% 30.14 0.0
03 02:30 Calm 10.00 Fair CLR 44.6 44.6 100% 30.14 0.0
03 02:15 Calm 10.00 Fair CLR 44.6 44.6 100% 30.14 0.0
03 01:55 Calm 10.00 Fair CLR 46.4 44.6 93% 30.14 0.0
03 01:35 Calm 10.00 Fair CLR 46.4 44.6 93% 30.14 0.0
03 01:15 Calm 10.00 Fair CLR 46.4 44.6 93% 30.14 0.0
03 00:55 Calm 10.00 Fair CLR 46.4 44.6 93% 30.14 0.0
03 00:35 Calm 10.00 Fair CLR 50 44.6 82% 30.14 0.0
03 00:15 Calm 10.00 Fair CLR 50 46.4 88% 30.13 0.0
02 23:55 Calm 10.00 Fair CLR 51.8 44.6 77% 30.13 0.0
02 23:35 Calm 10.00 Fair CLR 51.8 44.6 77% 30.13 0.0
02 23:15 Calm 10.00 Fair CLR 53.6 44.6 72% 30.12 0.0
02 22:55 NE 5 10.00 Fair CLR 53.6 44.6 72% 30.12 0.0
02 22:35 Vrbl 7 10.00 Fair CLR 53.6 44.6 72% 30.12 0.0
02 22:15 NE 6 10.00 Fair CLR 55.4 42.8 63% 30.12 0.0
02 21:55 NE 8 10.00 Fair CLR 55.4 42.8 63% 30.11 0.0
02 21:35 NE 8 10.00 Fair CLR 55.4 42.8 63% 30.1 0.0
02 21:15 NE 8 10.00 Fair CLR 57.2 42.8 59% 30.09 0.0
02 20:55 N 12 10.00 Fair CLR 57.2 41 55% 30.08 0.0
02 20:35 NW 5 10.00 Fair CLR 59 39.2 48% 30.06 0.0
02 20:15 NW 5 10.00 Fair CLR 59 39.2 48% 30.05 0.0
02 19:55 NW 6 10.00 Fair CLR 59 39.2 48% 30.04 0.0
02 19:35 N 7 10.00 Fair CLR 60.8 39.2 45% 30.04 0.0
02 19:15 N 7 10.00 A Few Clouds FEW085 FEW100 62.6 39.2 42% 30.03 0.0
02 18:55 N 10 G 16 10.00 Mostly Cloudy FEW090 BKN100 64.4 39.2 40% 30.02 0.0
02 18:35 NW 8 G 14 10.00 Partly Cloudy FEW080 SCT100 66.2 39.2 37% 30.02 0.0
02 18:15 W 14 G 21 10.00 Fair CLR 66.2 37.4 35% 30.01 0.0
02 17:55 NW 10 10.00 A Few Clouds FEW085 FEW110 66.2 41 40% 30.01 0.0
02 17:35 NW 9 G 16 10.00 Mostly Cloudy SCT080 BKN095 68 41 38% 30.01 0.0
02 17:15 N 8 G 15 10.00 Mostly Cloudy SCT080 BKN100 68 41 38% 30.01 0.0
02 16:55 NW 12 G 18 10.00 Mostly Cloudy FEW080 BKN100 68 39.2 35% 30 0.0
02 16:35 NW 10 G 20 10.00 A Few Clouds FEW085 FEW110 68 39.2 35% 30 0.0
02 16:15 NW 8 G 16 10.00 Partly Cloudy SCT095 66.2 39.2 37% 30 0.0
02 15:55 W 13 10.00 A Few Clouds FEW080 FEW090 69.8 41 35% 30 0.0
02 15:30 NW 9 G 15 10.00 Mostly Cloudy SCT080 BKN090 68 41 38% 30.01 0.0
02 15:15 NW 9 G 18 10.00 Partly Cloudy SCT080 SCT095 68 39.2 35% 30.02 0.0
02 14:55 W 16 G 23 10.00 A Few Clouds FEW075 FEW110 69.8 39.2 33% 30.02 0.0
02 14:35 NW 9 G 16 10.00 A Few Clouds FEW100 68 39.2 35% 30.03 0.0
02 14:15 NW 10 G 17 10.00 A Few Clouds FEW095 66.2 39.2 37% 30.04 0.0
02 13:55 NW 9 10.00 Partly Cloudy FEW075 SCT090 66.2 39.2 37% 30.04 0.0
02 13:35 NW 6 G 13 10.00 Partly Cloudy FEW070 SCT085 66.2 39.2 37% 30.05 0.0
02 13:15 N 9 G 15 10.00 Mostly Cloudy BKN080 66.2 39.2 37% 30.05 0.0
02 12:55 W 12 10.00 A Few Clouds FEW075 FEW085 68 39.2 35% 30.06 0.0
02 12:35 W 7 G 14 10.00 A Few Clouds FEW070 66.2 39.2 37% 30.07 0.0
02 12:15 NW 14 10.00 Fair CLR 66.2 41 40% 30.07 0.0
02 11:55 NW 10 G 17 10.00 Fair CLR 66.2 41 40% 30.07 0.0
02 11:35 Vrbl 5 10.00 Fair CLR 64.4 37.4 37% 30.08 0.0
02 11:15 Vrbl 7 G 13 10.00 Fair CLR 64.4 39.2 40% 30.08 0.0
02 10:55 Vrbl 6 10.00 Fair CLR 62.6 41 45% 30.08 0.0
02 10:35 NE 3 G 12 10.00 Fair CLR 62.6 39.2 42% 30.08 0.0
02 10:15 NW 5 10.00 Fair CLR 60.8 41 48% 30.08 0.0
02 09:55 Calm 10.00 Fair CLR 60.8 41 48% 30.08 0.0
02 09:35 Calm 10.00 Fair CLR 59 41 51% 30.07 0.0
02 09:15 Calm 10.00 Fair CLR 57.2 41 55% 30.07 0.0
02 08:55 Calm 10.00 Fair CLR 57.2 42.8 59% 30.07 0.0
02 08:35 Calm 10.00 Fair CLR 55.4 44.6 67% 30.07 0.0
02 08:15 Calm 10.00 Fair CLR 51.8 44.6 77% 30.06 0.0
02 07:55 Calm 10.00 Fair CLR 50 44.6 82% 30.06 0.0
02 07:35 Calm 10.00 Fair CLR 48.2 44.6 87% 30.05 0.0
02 07:15 Calm 10.00 Fair CLR 46.4 46.4 100% 30.05 0.0
02 06:55 Calm 10.00 Fair CLR 44.6 44.6 100% 30.04 0.0
02 06:35 Calm 10.00 Fair CLR 42.8 42.8 100% 30.03 0.0
02 06:15 NW 3 10.00 Fair CLR 44.6 42.8 93% 30.02 0.0
02 05:55 Calm 10.00 Fair CLR 44.6 42.8 93% 30.02 0.0
02 05:35 NW 5 10.00 Fair CLR 44.6 42.8 93% 43 30.02 0.0
02 05:15 NW 5 10.00 Fair CLR 44.6 42.8 93% 43 30.01 0.0
02 04:55 NW 3 10.00 Fair CLR 46.4 44.6 93% 30.02 0.0
02 04:30 NW 3 10.00 Fair CLR 46.4 42.8 87% 30.01 0.0
02 04:15 NW 3 10.00 Fair CLR 46.4 44.6 93% 30.01 0.0
02 03:55 Calm 10.00 Fair CLR 46.4 42.8 87% 30.01 0.0
02 03:35 Calm 10.00 Fair CLR 48.2 42.8 82% 30.01 0.0
02 03:15 Calm 10.00 Fair CLR 48.2 42.8 82% 30.01 0.0
02 02:55 Calm 10.00 Fair CLR 50 41 71% 30.01 0.0
02 02:35 Calm 10.00 Fair CLR 50 41 71% 30.01 0.0
02 02:15 NE 3 10.00 Fair CLR 51.8 39.2 62% 30.02 0.0
02 01:55 NE 3 10.00 Fair CLR 53.6 39.2 58% 30.01 0.0
02 01:35 NE 5 10.00 Fair CLR 53.6 39.2 58% 30.03 0.0
02 01:15 NE 6 G 12 10.00 Fair CLR 55.4 39.2 55% 30.04 0.0
02 00:55 NE 7 10.00 Fair CLR 55.4 37.4 51% 30.04 0.0
02 00:35 NE 9 10.00 Fair CLR 55.4 37.4 51% 30.03 0.0
02 00:15 N 12 10.00 Fair CLR 55.4 37.4 51% 30.03 0.0
01 23:55 NE 10 10.00 Fair CLR 55.4 37.4 51% 30.02 0.0
01 23:35 NE 7 10.00 Fair CLR 55.4 37.4 51% 30.02 0.0
01 23:15 NE 6 10.00 Fair CLR 55.4 39.2 55% 30.02 0.0
01 22:55 NE 8 10.00 Fair CLR 55.4 41 59% 30.01 0.0
01 22:35 N 8 10.00 Fair CLR 55.4 41 59% 30.01 0.0
01 22:15 N 8 10.00 Fair CLR 55.4 42.8 63% 30.01 0.0
01 21:55 N 8 10.00 Fair CLR 55.4 44.6 67% 30.01 0.0
01 21:35 N 6 10.00 Fair CLR 55.4 44.6 67% 30.03 0.0
01 21:10 N 7 10.00 Fair CLR 55.4 44.6 67% 30.03 0.0
01 20:55 N 5 10.00 Fair CLR 57.2 44.6 63% 30.02 0.0
01 20:35 N 3 10.00 Fair CLR 57.2 44.6 63% 30.01 0.0
01 20:15 N 3 10.00 Fair CLR 57.2 46.4 67% 30 0.0
01 19:55 N 5 10.00 Fair CLR 59 46.4 63% 29.99 0.0
01 19:35 N 5 10.00 Fair CLR 59 46.4 63% 29.99 0.0
01 19:15 N 5 10.00 Fair CLR 60.8 46.4 59% 29.98 0.0
01 18:55 N 5 10.00 Fair CLR 60.8 46.4 59% 29.97 0.0
01 18:35 N 7 10.00 Fair CLR 62.6 44.6 52% 29.97 0.0
01 18:15 N 8 10.00 Fair CLR 62.6 44.6 52% 29.96 0.0
01 17:55 N 6 10.00 Fair CLR 64.4 46.4 52% 29.95 0.0
01 17:30 NE 8 10.00 A Few Clouds FEW049 66.2 48.2 52% 29.94 0.0
01 17:15 N 8 10.00 A Few Clouds FEW049 66.2 46.4 49% 29.94 0.0
01 16:55 N 6 G 14 10.00 Fair CLR 66.2 46.4 49% 29.94 0.0
01 16:35 N 9 10.00 Fair CLR 66.2 46.4 49% 29.93 0.0
01 16:15 N 7 10.00 Fair CLR 66.2 46.4 49% 29.93 0.0
01 15:55 N 12 10.00 Fair CLR 66.2 46.4 49% 29.94 0.0
01 15:35 Vrbl 7 G 15 10.00 Fair CLR 66.2 46.4 49% 29.96 0.0
01 15:15 N 10 10.00 Fair CLR 66.2 46.4 49% 29.98 0.0
01 14:55 Vrbl 5 G 12 10.00 Fair CLR 66.2 46.4 49% 29.99 0.0
01 14:35 N 8 G 14 10.00 Fair CLR 66.2 48.2 52% 29.99 0.0
01 14:15 NW 8 10.00 Fair CLR 66.2 48.2 52% 30 0.0
01 13:55 NW 9 10.00 Fair CLR 66.2 48.2 52% 30.01 0.0
01 13:35 Vrbl 6 10.00 Fair CLR 66.2 46.4 49% 30.02 0.0
01 13:15 N 9 10.00 Fair CLR 66.2 48.2 52% 30.02 0.0
01 12:55 NW 10 10.00 Fair CLR 64.4 48.2 56% 30.01 0.0
01 12:35 N 8 10.00 Fair CLR 64.4 48.2 56% 30.01 0.0
01 12:15 N 9 10.00 Fair CLR 64.4 48.2 56% 30.01 0.0
01 11:55 NW 7 10.00 Fair CLR 64.4 48.2 56% 30.02 0.0
01 11:35 N 8 10.00 Fair CLR 62.6 48.2 60% 30.03 0.0
01 11:15 N 6 10.00 Fair CLR 62.6 48.2 60% 30.03 0.0
01 10:55 N 7 10.00 Fair CLR 62.6 46.4 56% 30.04 0.0
01 10:35 N 8 10.00 Fair CLR 60.8 48.2 63% 30.03 0.0
01 10:15 N 9 10.00 Fair CLR 60.8 46.4 59% 30.02 0.0
01 09:55 N 6 10.00 Fair CLR 60.8 48.2 63% 30.03 0.0
01 09:35 N 3 10.00 Fair CLR 59 48.2 68% 30.03 0.0
01 09:15 NW 3 10.00 Fair CLR 57.2 48.2 72% 30.03 0.0
01 08:55 NW 3 10.00 Fair CLR 55.4 48.2 77% 30.03 0.0
01 08:35 NW 3 10.00 Fair CLR 55.4 48.2 77% 30.03 0.0
01 08:15 NW 5 10.00 Fair CLR 53.6 48.2 82% 30.03 0.0
01 07:55 NW 3 10.00 Fair CLR 51.8 50 94% 30.03 0.0
01 07:35 NW 3 10.00 Fair CLR 51.8 50 94% 30.01 0.0
01 07:15 Calm 10.00 Fair CLR 50 50 100% 30 0.0
01 06:55 Calm 10.00 Fair CLR 48.2 48.2 100% 30 0.0
01 06:30 Calm 10.00 Fair CLR 48.2 48.2 100% 30.01 0.0
01 06:15 Calm 10.00 Fair CLR 48.2 48.2 100% 30.01 0.0
01 05:55 W 3 10.00 Fair CLR 46.4 46.4 100% 30 0.0
01 05:35 Calm 10.00 Fair CLR 48.2 48.2 100% 29.98 0.0
01 05:15 NW 3 10.00 Fair CLR 48.2 48.2 100% 29.97 0.0
01 04:55 NW 3 10.00 Fair CLR 46.4 46.4 100% 29.98 0.0
01 04:35 W 5 10.00 Fair CLR 46.4 46.4 100% 45 29.98 0.0
01 04:15 Calm 10.00 Fair CLR 48.2 48.2 100% 29.98 0.0
01 03:55 Calm 10.00 Fair CLR 48.2 48.2 100% 29.97 0.0
01 03:35 W 3 10.00 Fair CLR 48.2 48.2 100% 29.97 0.0
01 03:15 Calm 10.00 Fair CLR 50 48.2 94% 29.98 0.0
01 02:50 Calm 10.00 Fair CLR 48.2 48.2 100% 29.97 0.0
01 02:35 Calm 10.00 Fair CLR 48.2 48.2 100% 29.98 0.0
01 02:15 W 3 10.00 Fair CLR 50 48.2 94% 29.98 0.0
01 01:55 NW 3 10.00 Fair CLR 50 48.2 94% 29.98 0.0
01 01:35 Calm 10.00 Fair CLR 51.8 48.2 88% 29.98 0.0
01 01:15 NW 3 10.00 Fair CLR 51.8 48.2 88% 29.98 0.0
01 00:55 Calm 10.00 Fair CLR 51.8 48.2 88% 29.99 0.0
01 00:35 NW 3 10.00 Fair CLR 53.6 46.4 77% 29.99 0.0
01 00:15 NW 5 10.00 Fair CLR 53.6 46.4 77% 30 0.0
30 23:55 NW 3 10.00 Fair CLR 53.6 46.4 77% 29.99 0.0
30 23:35 NW 5 10.00 Fair CLR 53.6 46.4 77% 29.99 0.0
30 23:15 N 5 10.00 Fair CLR 53.6 46.4 77% 29.99 0.0
30 22:55 Calm 10.00 Fair CLR 55.4 48.2 77% 30 0.0
30 22:35 Calm 10.00 Fair CLR 55.4 48.2 77% 30 0.0
30 22:15 Calm 10.00 Fair CLR 55.4 48.2 77% 30 0.0
30 21:55 N 3 10.00 Fair CLR 55.4 46.4 72% 30 0.0
30 21:35 Calm 10.00 Fair CLR 55.4 46.4 72% 30 0.0
30 21:15 Calm 10.00 Fair CLR 57.2 46.4 67% 30 0.0
30 20:55 Calm 10.00 Fair CLR 57.2 46.4 67% 30 0.0
30 20:35 NW 3 10.00 Fair CLR 57.2 46.4 67% 29.99 0.0
Date Time (cdt) Wind (mph) Vis. (mi.) Weather Sky Cond. Air Dwpt Max. Min. Relative Humidity Wind Chill (°F) Heat Index (°F) altimeter (in) sea level (mb) 1 hr 3 hr 6 hr
6 hour
Temperature (ºF) Pressure Precipitation (in)